Time;durP1;ratioP1;P1;durP2;ratioP2;P2;SDS_P1;SDS_P2;PMS_P1;PMS_P2;Temp;Humidity;BMP_temperature;BMP_pressure;BME280_temperature;BME280_humidity;BME280_pressure;Samples;Min_cycle;Max_cycle;Signal;HPM_P1;HPM_P2
2021/10/08 00:01:04;;;;;;;17.30;6.30;;;;;;;;;;5079908;28;20025;-87
2021/10/08 00:03:30;;;;;;;9.02;5.10;;;;;;;;;;5081050;28;20039;-87
2021/10/08 00:05:56;;;;;;;10.95;5.75;;;;;;;;;;5080624;28;20050;-87
2021/10/08 00:08:22;;;;;;;12.93;5.18;;;;;;;;;;5079834;28;20024;-87
2021/10/08 00:10:48;;;;;;;15.07;5.30;;;;;;;;;;5080305;28;20025;-87
2021/10/08 00:13:14;;;;;;;11.40;4.82;;;;;;;;;;5079283;28;20039;-88
2021/10/08 00:15:40;;;;;;;18.08;6.07;;;;;;;;;;5080238;28;20365;-88
2021/10/08 00:18:07;;;;;;;12.60;5.10;;;;;;;;;;5080603;28;20291;-87
2021/10/08 00:20:33;;;;;;;12.93;4.55;;;;;;;;;;5079400;28;20111;-87
2021/10/08 00:23:01;;;;;;;8.85;5.07;;;;;;;;;;5080666;28;20115;-89
2021/10/08 00:25:27;;;;;;;15.05;5.57;;;;;;;;;;5080630;28;20070;-89
2021/10/08 00:27:53;;;;;;;12.13;4.30;;;;;;;;;;5079324;28;20051;-86
2021/10/08 00:30:20;;;;;;;10.43;4.47;;;;;;;;;;5079741;28;20016;-85
2021/10/08 00:32:46;;;;;;;16.98;5.72;;;;;;;;;;5080100;28;20025;-85
2021/10/08 00:35:14;;;;;;;12.20;6.13;;;;;;;;;;5079044;28;20032;-85
2021/10/08 00:37:59;;;;;;;15.35;4.45;;;;;;;;;;5079126;28;20049;-85
2021/10/08 00:40:25;;;;;;;9.40;5.15;;;;;;;;;;5079964;28;20062;-86
2021/10/08 00:42:51;;;;;;;11.82;5.32;;;;;;;;;;5080347;28;20033;-87
2021/10/08 00:45:17;;;;;;;11.52;5.18;;;;;;;;;;5079623;28;20036;-87
2021/10/08 00:47:43;;;;;;;14.95;5.47;;;;;;;;;;5079757;28;20406;-86
2021/10/08 00:50:10;;;;;;;16.60;5.70;;;;;;;;;;5080051;28;20025;-87
2021/10/08 00:52:37;;;;;;;15.60;4.90;;;;;;;;;;5080032;28;20056;-86
2021/10/08 00:55:04;;;;;;;10.95;5.15;;;;;;;;;;5079688;28;20086;-86
2021/10/08 00:57:30;;;;;;;13.45;5.60;;;;;;;;;;5079380;28;20115;-86
2021/10/08 00:59:56;;;;;;;11.45;5.82;;;;;;;;;;5078465;28;20345;-86
2021/10/08 01:02:24;;;;;;;12.23;5.88;;;;;;;;;;5079630;28;20062;-88
2021/10/08 01:04:56;;;;;;;12.43;5.50;;;;;;;;;;5079335;28;20066;-86
2021/10/08 01:07:31;;;;;;;15.63;5.67;;;;;;;;;;5059831;28;20021;-87
2021/10/08 01:09:57;;;;;;;13.40;4.75;;;;;;;;;;5076265;28;20024;-88
2021/10/08 01:12:23;;;;;;;13.38;5.55;;;;;;;;;;5079562;28;20051;-88
2021/10/08 01:14:49;;;;;;;13.75;5.72;;;;;;;;;;5079055;28;20431;-88
2021/10/08 01:17:18;;;;;;;14.18;5.70;;;;;;;;;;5079186;28;20352;-89
2021/10/08 01:19:45;;;;;;;8.10;4.78;;;;;;;;;;5078228;28;20047;-89
2021/10/08 01:22:11;;;;;;;10.00;5.15;;;;;;;;;;5077934;28;20060;-88
2021/10/08 01:24:37;;;;;;;15.65;5.78;;;;;;;;;;5079458;28;20020;-88
2021/10/08 01:27:10;;;;;;;14.38;4.88;;;;;;;;;;5079078;28;20073;-87
2021/10/08 01:29:47;;;;;;;16.20;5.60;;;;;;;;;;5077730;28;20045;-89
2021/10/08 01:32:13;;;;;;;13.98;5.43;;;;;;;;;;5078946;28;20028;-89
2021/10/08 01:34:39;;;;;;;15.32;5.28;;;;;;;;;;5079217;28;20028;-89
2021/10/08 01:37:05;;;;;;;10.77;4.85;;;;;;;;;;5079153;28;20028;-88
2021/10/08 01:39:31;;;;;;;11.60;4.60;;;;;;;;;;5079187;28;20029;-89
2021/10/08 01:41:57;;;;;;;11.05;4.60;;;;;;;;;;5078805;28;20029;-89
2021/10/08 01:44:23;;;;;;;9.40;4.72;;;;;;;;;;5078674;28;20476;-89
2021/10/08 01:46:50;;;;;;;10.40;5.13;;;;;;;;;;5078796;28;20107;-89
2021/10/08 01:49:16;;;;;;;10.85;3.85;;;;;;;;;;5076908;28;20025;-87
2021/10/08 01:51:42;;;;;;;10.25;4.43;;;;;;;;;;5078496;28;20107;-86
2021/10/08 01:57:12;;;;;;;11.05;4.70;;;;;;;;;;5078068;28;20039;-86
2021/10/08 01:59:38;;;;;;;7.72;4.05;;;;;;;;;;5078481;28;20032;-85
2021/10/08 02:02:04;;;;;;;10.25;4.40;;;;;;;;;;5077261;28;20056;-86
2021/10/08 02:04:30;;;;;;;8.43;4.10;;;;;;;;;;5078579;28;20032;-86
2021/10/08 02:06:57;;;;;;;12.75;4.30;;;;;;;;;;5078041;28;20028;-86
2021/10/08 02:10:00;;;;;;;11.63;4.25;;;;;;;;;;5078479;28;20035;-87
2021/10/08 02:12:26;;;;;;;11.00;3.67;;;;;;;;;;5077871;28;20035;-87
2021/10/08 02:14:52;;;;;;;8.60;3.70;;;;;;;;;;5078071;28;20378;-87
2021/10/08 02:17:18;;;;;;;10.77;3.92;;;;;;;;;;5076494;28;20334;-88
2021/10/08 02:19:44;;;;;;;8.50;3.85;;;;;;;;;;5078190;28;20292;-88
2021/10/08 02:22:10;;;;;;;12.65;4.13;;;;;;;;;;5068318;28;20059;-87
2021/10/08 02:24:37;;;;;;;8.35;3.75;;;;;;;;;;5078106;28;20425;-88
2021/10/08 02:27:03;;;;;;;9.75;3.97;;;;;;;;;;5076901;28;20040;-87
2021/10/08 02:29:29;;;;;;;9.20;3.67;;;;;;;;;;5077089;28;20021;-88
2021/10/08 02:31:55;;;;;;;7.38;3.85;;;;;;;;;;5077118;28;20047;-87
2021/10/08 02:34:21;;;;;;;9.98;3.90;;;;;;;;;;5078102;28;20017;-88
2021/10/08 02:36:48;;;;;;;10.15;3.90;;;;;;;;;;5077625;28;20028;-88
2021/10/08 02:39:14;;;;;;;8.18;4.10;;;;;;;;;;5077581;28;20414;-91
2021/10/08 02:41:40;;;;;;;7.75;3.80;;;;;;;;;;5077667;28;20025;-90
2021/10/08 02:44:06;;;;;;;9.00;3.97;;;;;;;;;;5077971;28;20313;-89
2021/10/08 02:46:32;;;;;;;14.80;4.30;;;;;;;;;;5076520;28;20036;-89
2021/10/08 02:48:58;;;;;;;11.23;4.20;;;;;;;;;;5077346;28;20052;-88
2021/10/08 02:51:24;;;;;;;11.32;3.80;;;;;;;;;;5076919;28;20121;-90
2021/10/08 03:00:16;;;;;;;8.40;4.32;;;;;;;;;;5076248;28;20031;-85
2021/10/08 03:02:42;;;;;;;11.98;3.90;;;;;;;;;;5076371;28;20024;-87
2021/10/08 03:05:08;;;;;;;10.20;3.72;;;;;;;;;;5077226;28;20035;-84
2021/10/08 03:07:34;;;;;;;10.63;3.95;;;;;;;;;;5077312;28;20067;-86
2021/10/08 03:10:01;;;;;;;8.50;4.10;;;;;;;;;;5077641;28;20024;-89
2021/10/08 03:12:27;;;;;;;9.90;3.60;;;;;;;;;;5077704;28;20017;-88
2021/10/08 03:14:53;;;;;;;7.80;3.97;;;;;;;;;;5077394;28;20049;-88
2021/10/08 03:17:22;;;;;;;9.75;3.95;;;;;;;;;;5077614;28;20070;-88
2021/10/08 03:19:48;;;;;;;11.07;3.95;;;;;;;;;;5076331;28;20021;-88
2021/10/08 03:22:14;;;;;;;7.47;3.70;;;;;;;;;;5076899;28;20036;-88
2021/10/08 03:24:43;;;;;;;9.48;4.20;;;;;;;;;;5077359;28;20112;-88
2021/10/08 03:27:09;;;;;;;9.25;3.80;;;;;;;;;;5077331;28;20032;-88
2021/10/08 03:29:35;;;;;;;9.70;4.30;;;;;;;;;;5076153;28;20044;-88
2021/10/08 03:32:01;;;;;;;11.32;3.83;;;;;;;;;;5076127;28;20016;-88
2021/10/08 03:34:27;;;;;;;12.57;3.80;;;;;;;;;;5077163;28;20490;-87
2021/10/08 03:36:56;;;;;;;10.50;3.42;;;;;;;;;;5077502;28;20024;-89
2021/10/08 03:39:28;;;;;;;8.07;4.00;;;;;;;;;;5076332;28;20111;-88
2021/10/08 03:41:54;;;;;;;6.70;3.90;;;;;;;;;;5077356;28;20056;-88
2021/10/08 03:44:28;;;;;;;7.57;3.20;;;;;;;;;;5076921;28;20028;-87
2021/10/08 03:46:57;;;;;;;7.65;3.97;;;;;;;;;;5077278;28;20032;-87
2021/10/08 03:49:23;;;;;;;10.55;4.00;;;;;;;;;;5077409;28;20021;-88
2021/10/08 03:51:50;;;;;;;9.15;4.40;;;;;;;;;;5077438;28;20031;-89
2021/10/08 03:54:17;;;;;;;8.60;3.78;;;;;;;;;;5076045;28;20109;-85
2021/10/08 03:56:43;;;;;;;7.85;3.92;;;;;;;;;;5077059;28;20037;-85
2021/10/08 03:59:09;;;;;;;8.10;3.92;;;;;;;;;;5075906;28;20021;-86
2021/10/08 04:01:36;;;;;;;12.65;3.90;;;;;;;;;;5077207;28;20032;-86
2021/10/08 04:04:04;;;;;;;6.40;4.30;;;;;;;;;;5075720;28;20116;-86
2021/10/08 04:06:32;;;;;;;12.68;4.82;;;;;;;;;;5076063;28;20025;-86
2021/10/08 04:12:33;;;;;;;12.05;3.95;;;;;;;;;;5077131;28;20104;-87
2021/10/08 04:14:59;;;;;;;7.80;3.70;;;;;;;;;;5079442;28;20467;-87
2021/10/08 04:17:25;;;;;;;12.85;4.60;;;;;;;;;;5079326;28;20325;-86
2021/10/08 04:19:51;;;;;;;11.98;4.80;;;;;;;;;;5080682;28;20039;-87
2021/10/08 04:22:17;;;;;;;9.35;4.82;;;;;;;;;;5080423;28;20017;-86
2021/10/08 04:24:43;;;;;;;9.95;4.88;;;;;;;;;;5080642;28;20032;-87
2021/10/08 04:27:09;;;;;;;10.43;4.40;;;;;;;;;;5080007;28;20028;-88
2021/10/08 04:29:35;;;;;;;8.95;4.22;;;;;;;;;;5079029;28;20057;-87
2021/10/08 04:32:01;;;;;;;10.50;4.43;;;;;;;;;;5079813;28;20323;-87
2021/10/08 04:34:27;;;;;;;11.25;4.20;;;;;;;;;;5080401;28;20024;-88
2021/10/08 04:36:53;;;;;;;13.00;4.18;;;;;;;;;;5078739;28;20043;-87
2021/10/08 04:39:19;;;;;;;10.30;4.60;;;;;;;;;;5080422;28;20021;-87
2021/10/08 04:41:46;;;;;;;9.43;4.45;;;;;;;;;;5080088;28;20391;-87
2021/10/08 04:44:12;;;;;;;10.50;4.50;;;;;;;;;;5079922;28;20056;-87
2021/10/08 04:46:38;;;;;;;9.55;4.40;;;;;;;;;;5079685;28;20041;-90
2021/10/08 04:49:04;;;;;;;10.15;4.25;;;;;;;;;;5079826;28;20402;-87
2021/10/08 04:51:30;;;;;;;8.90;4.97;;;;;;;;;;5079569;28;20025;-87
2021/10/08 04:53:56;;;;;;;8.93;4.68;;;;;;;;;;5079698;28;20099;-88
2021/10/08 04:56:22;;;;;;;10.82;4.50;;;;;;;;;;5078628;28;20411;-88
2021/10/08 04:58:48;;;;;;;9.95;4.55;;;;;;;;;;5078371;28;20165;-88
2021/10/08 05:01:14;;;;;;;24.45;11.13;;;;;;;;;;5079826;28;20028;-88
2021/10/08 05:03:41;;;;;;;15.90;7.05;;;;;;;;;;5079672;28;20033;-88
2021/10/08 05:06:07;;;;;;;13.32;5.20;;;;;;;;;;5078642;28;20115;-88
2021/10/08 05:08:33;;;;;;;13.35;4.40;;;;;;;;;;5079483;28;20036;-88
2021/10/08 05:10:59;;;;;;;10.65;4.53;;;;;;;;;;5079650;28;20047;-85
2021/10/08 05:13:25;;;;;;;10.15;4.10;;;;;;;;;;5079571;28;20021;-85
2021/10/08 05:15:51;;;;;;;9.38;3.92;;;;;;;;;;5079185;28;20453;-84
2021/10/08 05:18:18;;;;;;;8.43;3.88;;;;;;;;;;5077974;28;20032;-86
2021/10/08 05:20:44;;;;;;;8.05;4.05;;;;;;;;;;5079032;28;20025;-89
2021/10/08 05:23:10;;;;;;;6.78;4.68;;;;;;;;;;5074144;28;20083;-87
2021/10/08 05:25:38;;;;;;;20.02;7.47;;;;;;;;;;5063802;28;20020;-87
2021/10/08 05:28:04;;;;;;;14.27;7.95;;;;;;;;;;5079278;28;20020;-89
2021/10/08 05:30:30;;;;;;;17.42;6.82;;;;;;;;;;5078058;28;20441;-87
2021/10/08 05:32:56;;;;;;;12.48;5.03;;;;;;;;;;5079346;28;20032;-87
2021/10/08 05:35:22;;;;;;;9.50;4.70;;;;;;;;;;5078125;28;20052;-88
2021/10/08 05:37:48;;;;;;;5.70;4.00;;;;;;;;;;5079359;28;20044;-88
2021/10/08 05:40:54;;;;;;;8.23;3.88;;;;;;;;;;5077743;28;20017;-93
2021/10/08 05:43:20;;;;;;;7.18;4.10;;;;;;;;;;5078764;28;20029;-89
2021/10/08 05:45:46;;;;;;;11.23;4.22;;;;;;;;;;5092845;28;20034;-89
2021/10/08 05:48:12;;;;;;;5.85;4.25;;;;;;;;;;5092681;28;20013;-85
2021/10/08 05:50:38;;;;;;;8.60;4.03;;;;;;;;;;5077757;28;20044;-84
2021/10/08 05:53:06;;;;;;;6.30;3.95;;;;;;;;;;5078232;28;20052;-90
2021/10/08 05:55:51;;;;;;;7.35;4.15;;;;;;;;;;5077478;28;20033;-83
2021/10/08 05:58:17;;;;;;;8.57;4.68;;;;;;;;;;5078069;28;20115;-82
2021/10/08 06:00:43;;;;;;;7.40;3.97;;;;;;;;;;5077990;28;20042;-81
2021/10/08 06:03:09;;;;;;;10.65;4.75;;;;;;;;;;5077797;28;20027;-81
2021/10/08 06:05:36;;;;;;;6.70;4.07;;;;;;;;;;5076416;28;20075;-82
2021/10/08 06:08:03;;;;;;;7.40;4.43;;;;;;;;;;5078220;28;20021;-82
2021/10/08 06:10:47;;;;;;;12.38;5.32;;;;;;;;;;5076335;28;20035;-82
2021/10/08 06:13:13;;;;;;;6.40;4.30;;;;;;;;;;5077584;28;20100;-81
2021/10/08 06:15:39;;;;;;;9.45;5.25;;;;;;;;;;5077797;28;20059;-81
2021/10/08 06:18:05;;;;;;;10.98;4.93;;;;;;;;;;5077774;28;20024;-81
2021/10/08 06:20:32;;;;;;;11.35;4.85;;;;;;;;;;5077463;28;20031;-84
2021/10/08 06:22:58;;;;;;;12.15;5.22;;;;;;;;;;5077631;28;20028;-82
2021/10/08 06:25:24;;;;;;;10.38;4.95;;;;;;;;;;5077428;28;20326;-82
2021/10/08 06:27:53;;;;;;;15.30;4.80;;;;;;;;;;5076474;28;20017;-81
2021/10/08 06:30:20;;;;;;;12.10;4.93;;;;;;;;;;5077238;28;20147;-81
2021/10/08 06:32:46;;;;;;;9.18;4.88;;;;;;;;;;5077590;28;20021;-81
2021/10/08 06:35:12;;;;;;;9.07;4.70;;;;;;;;;;5077133;28;20020;-81
2021/10/08 06:37:38;;;;;;;12.60;5.13;;;;;;;;;;5077366;28;20100;-82
2021/10/08 06:40:05;;;;;;;8.23;5.00;;;;;;;;;;5077117;28;20091;-82
2021/10/08 06:42:31;;;;;;;13.90;5.63;;;;;;;;;;5077504;28;20021;-82
2021/10/08 06:44:57;;;;;;;11.15;4.90;;;;;;;;;;5077073;28;20403;-82
2021/10/08 06:47:24;;;;;;;8.40;5.05;;;;;;;;;;5077384;28;20045;-82
2021/10/08 06:49:50;;;;;;;8.23;4.90;;;;;;;;;;5075776;28;20028;-82
2021/10/08 06:52:16;;;;;;;11.40;5.18;;;;;;;;;;5077288;28;20031;-82
2021/10/08 06:54:42;;;;;;;13.07;5.78;;;;;;;;;;5077137;28;20047;-82
2021/10/08 06:57:08;;;;;;;11.85;4.95;;;;;;;;;;5061928;28;20486;-80
2021/10/08 06:59:34;;;;;;;9.00;6.00;;;;;;;;;;5056718;28;20075;-81
2021/10/08 07:02:00;;;;;;;11.50;5.45;;;;;;;;;;5071078;28;20028;-81
2021/10/08 07:04:27;;;;;;;9.52;4.72;;;;;;;;;;5077237;28;20036;-79
2021/10/08 07:06:53;;;;;;;13.98;6.55;;;;;;;;;;5076907;28;20025;-82
2021/10/08 07:09:19;;;;;;;14.90;6.07;;;;;;;;;;5076814;28;20418;-82
2021/10/08 07:11:45;;;;;;;9.40;5.05;;;;;;;;;;5077019;28;20025;-82
2021/10/08 07:14:11;;;;;;;10.73;5.53;;;;;;;;;;5075850;28;20036;-82
2021/10/08 07:16:38;;;;;;;12.70;5.32;;;;;;;;;;5058637;28;20120;-82
2021/10/08 07:19:08;;;;;;;12.63;5.72;;;;;;;;;;5057043;28;20437;-80
2021/10/08 07:21:34;;;;;;;12.82;5.88;;;;;;;;;;5056967;28;20029;-82
2021/10/08 07:24:01;;;;;;;12.75;6.97;;;;;;;;;;5056865;28;20024;-81
2021/10/08 07:26:29;;;;;;;14.43;7.13;;;;;;;;;;5056675;28;20036;-82
2021/10/08 07:28:55;;;;;;;16.88;6.75;;;;;;;;;;5056777;28;20025;-82
2021/10/08 07:31:21;;;;;;;12.05;5.78;;;;;;;;;;5056799;28;20021;-80
2021/10/08 07:33:47;;;;;;;10.30;5.80;;;;;;;;;;5056827;28;20025;-81
2021/10/08 07:36:13;;;;;;;8.52;5.60;;;;;;;;;;5056706;28;20053;-81
2021/10/08 07:38:40;;;;;;;12.80;5.40;;;;;;;;;;5056587;28;20025;-81
2021/10/08 07:41:06;;;;;;;9.32;5.85;;;;;;;;;;5056608;28;20075;-81
2021/10/08 07:43:33;;;;;;;14.23;5.63;;;;;;;;;;5055201;28;20041;-81
2021/10/08 07:45:59;;;;;;;10.82;6.35;;;;;;;;;;5056438;28;20059;-82
2021/10/08 07:48:25;;;;;;;15.07;6.68;;;;;;;;;;5058416;28;20377;-83
2021/10/08 07:50:51;;;;;;;12.68;6.50;;;;;;;;;;5060629;28;20025;-82
2021/10/08 07:53:17;;;;;;;13.32;5.80;;;;;;;;;;5059007;28;20092;-81
2021/10/08 07:55:43;;;;;;;13.20;5.95;;;;;;;;;;5060319;28;20219;-82
2021/10/08 07:58:09;;;;;;;13.93;8.15;;;;;;;;;;5063974;28;20021;-82
2021/10/08 08:00:35;;;;;;;27.77;8.38;;;;;;;;;;5080405;28;20029;-82
2021/10/08 08:03:01;;;;;;;14.00;6.53;;;;;;;;;;5080246;28;20024;-81
2021/10/08 08:05:27;;;;;;;12.93;6.70;;;;;;;;;;5080629;28;20021;-81
2021/10/08 08:07:53;;;;;;;24.58;16.58;;;;;;;;;;5080275;28;20024;-81
2021/10/08 08:10:19;;;;;;;62.63;38.33;;;;;;;;;;5079907;28;20024;-82
2021/10/08 08:12:46;;;;;;;1613.50;837.90;;;;;;;;;;5079908;28;20031;-82
2021/10/08 08:15:12;;;;;;;813.78;463.02;;;;;;;;;;5079646;28;20040;-81
2021/10/08 08:17:38;;;;;;;113.78;56.50;;;;;;;;;;5078882;28;20048;-82
2021/10/08 08:20:05;;;;;;;37.63;22.50;;;;;;;;;;5080004;28;20095;-82
2021/10/08 08:22:31;;;;;;;17.42;9.48;;;;;;;;;;5079849;28;20422;-82
2021/10/08 08:24:57;;;;;;;28.77;21.35;;;;;;;;;;5079523;28;20024;-82
2021/10/08 08:27:23;;;;;;;23.38;15.98;;;;;;;;;;5079505;28;20033;-82
2021/10/08 08:29:49;;;;;;;14.85;9.27;;;;;;;;;;5079721;28;20414;-82
2021/10/08 08:32:16;;;;;;;11.13;6.00;;;;;;;;;;5079943;28;20024;-82
2021/10/08 08:34:42;;;;;;;34.42;17.38;;;;;;;;;;5079617;28;20414;-82
2021/10/08 08:37:08;;;;;;;26.05;19.23;;;;;;;;;;5079816;28;20334;-82
2021/10/08 08:39:38;;;;;;;17.33;12.10;;;;;;;;;;5079588;28;20044;-79
2021/10/08 08:42:04;;;;;;;79.50;63.17;;;;;;;;;;5079582;28;20052;-81
2021/10/08 08:44:31;;;;;;;56.25;42.10;;;;;;;;;;5078298;28;20020;-82
2021/10/08 08:46:58;;;;;;;78.57;57.72;;;;;;;;;;5080487;28;20079;-82
2021/10/08 08:49:24;;;;;;;55.13;41.42;;;;;;;;;;5081582;28;20060;-81
2021/10/08 08:51:50;;;;;;;23.80;17.20;;;;;;;;;;5079253;28;20020;-81
2021/10/08 08:54:16;;;;;;;21.08;12.10;;;;;;;;;;5079353;28;20020;-81
2021/10/08 08:56:42;;;;;;;15.18;8.25;;;;;;;;;;5079136;28;20021;-81
2021/10/08 08:59:10;;;;;;;18.67;8.80;;;;;;;;;;5079003;28;20033;-78
2021/10/08 09:01:56;;;;;;;17.83;10.05;;;;;;;;;;5079035;28;20414;-79
2021/10/08 09:04:24;;;;;;;17.48;8.75;;;;;;;;;;5079402;28;20317;-81
2021/10/08 09:06:50;;;;;;;12.80;6.78;;;;;;;;;;5079020;28;20021;-81
2021/10/08 09:09:17;;;;;;;14.70;7.90;;;;;;;;;;5077860;28;20414;-81
2021/10/08 09:11:44;;;;;;;11.07;6.88;;;;;;;;;;5078646;28;20052;-80
2021/10/08 09:14:19;;;;;;;20.85;11.80;;;;;;;;;;5078767;28;20024;-81
2021/10/08 09:17:03;;;;;;;11.82;8.45;;;;;;;;;;5078842;28;20428;-82
2021/10/08 09:20:08;;;;;;;18.15;11.32;;;;;;;;;;5078969;28;20025;-82
2021/10/08 09:22:41;;;;;;;12.15;5.95;;;;;;;;;;5036870;28;20323;-82
2021/10/08 09:25:07;;;;;;;13.10;6.90;;;;;;;;;;5036967;28;20064;-82
2021/10/08 09:27:37;;;;;;;25.17;16.48;;;;;;;;;;5019939;28;20037;-82
2021/10/08 09:30:03;;;;;;;26.05;14.45;;;;;;;;;;5036869;28;20045;-82
2021/10/08 09:32:39;;;;;;;456.20;310.00;;;;;;;;;;5036799;28;20103;-82
2021/10/08 09:35:07;;;;;;;248.00;171.57;;;;;;;;;;5036371;28;20466;-82
2021/10/08 09:37:33;;;;;;;457.17;308.83;;;;;;;;;;5020079;28;20324;-82
2021/10/08 09:39:59;;;;;;;201.95;125.13;;;;;;;;;;5020030;28;20033;-81
2021/10/08 09:42:33;;;;;;;239.50;176.43;;;;;;;;;;5036537;28;20021;-82
2021/10/08 09:44:59;;;;;;;147.05;100.97;;;;;;;;;;5036472;28;20053;-82
2021/10/08 09:47:29;;;;;;;56.80;37.80;;;;;;;;;;5036461;28;20033;-82
2021/10/08 09:50:08;;;;;;;24.40;14.65;;;;;;;;;;5036399;28;20144;-82
2021/10/08 09:52:34;;;;;;;32.33;18.08;;;;;;;;;;5029081;28;20060;-82
2021/10/08 09:55:01;;;;;;;23.83;14.52;;;;;;;;;;5078077;28;20020;-82
2021/10/08 09:57:28;;;;;;;14.15;9.70;;;;;;;;;;5078214;28;20024;-82
2021/10/08 09:59:55;;;;;;;11.27;7.45;;;;;;;;;;5077021;28;20052;-82
2021/10/08 10:02:21;;;;;;;14.13;6.00;;;;;;;;;;5077914;28;20348;-82
2021/10/08 10:04:49;;;;;;;13.88;6.40;;;;;;;;;;5077865;28;20429;-82
2021/10/08 10:07:16;;;;;;;13.18;6.28;;;;;;;;;;5072424;28;20037;-82
2021/10/08 10:09:42;;;;;;;11.95;6.47;;;;;;;;;;5057560;28;20027;-82
2021/10/08 10:12:08;;;;;;;10.85;6.07;;;;;;;;;;5057365;28;20080;-81
2021/10/08 10:14:34;;;;;;;13.05;6.55;;;;;;;;;;5073779;28;20422;-82
2021/10/08 10:17:02;;;;;;;10.82;6.00;;;;;;;;;;5076322;28;20048;-82
2021/10/08 10:19:29;;;;;;;14.68;5.10;;;;;;;;;;5077838;28;20103;-85
2021/10/08 10:21:56;;;;;;;12.20;5.35;;;;;;;;;;5077044;28;20025;-85
2021/10/08 10:27:26;;;;;;;8.50;4.40;;;;;;;;;;5077883;28;20039;-85
2021/10/08 10:29:52;;;;;;;12.50;8.15;;;;;;;;;;5078177;28;20032;-86
2021/10/08 10:32:18;;;;;;;11.63;4.90;;;;;;;;;;5077979;28;20099;-85
2021/10/08 10:34:44;;;;;;;11.35;4.65;;;;;;;;;;5078199;28;20104;-85
2021/10/08 10:37:11;;;;;;;9.60;4.80;;;;;;;;;;5077448;28;20031;-85
2021/10/08 10:42:40;;;;;;;15.45;6.88;;;;;;;;;;5078011;28;20039;-85
2021/10/08 10:45:11;;;;;;;9.25;4.70;;;;;;;;;;5077506;28;20043;-85
2021/10/08 10:47:38;;;;;;;9.07;3.70;;;;;;;;;;5076937;28;20053;-86
2021/10/08 10:50:28;;;;;;;6.82;4.63;;;;;;;;;;5076303;28;20044;-85
2021/10/08 10:52:56;;;;;;;7.85;3.38;;;;;;;;;;5076328;28;20124;-85
2021/10/08 10:55:40;;;;;;;9.02;3.65;;;;;;;;;;5077606;28;20027;-85
2021/10/08 10:58:08;;;;;;;7.40;4.05;;;;;;;;;;5077359;28;20104;-85
2021/10/08 11:00:39;;;;;;;7.32;3.55;;;;;;;;;;5077505;28;20020;-85
2021/10/08 11:03:18;;;;;;;6.38;4.18;;;;;;;;;;5077449;28;20021;-85
2021/10/08 11:06:03;;;;;;;12.35;3.58;;;;;;;;;;5077451;28;20036;-85
2021/10/08 11:08:29;;;;;;;13.32;4.63;;;;;;;;;;5077425;28;20020;-86
2021/10/08 11:11:01;;;;;;;6.28;3.60;;;;;;;;;;5076553;28;20062;-85
2021/10/08 11:13:27;;;;;;;8.45;3.30;;;;;;;;;;5077696;28;20021;-85
2021/10/08 11:15:58;;;;;;;10.20;3.95;;;;;;;;;;5076159;28;20052;-86
2021/10/08 11:18:36;;;;;;;9.18;4.55;;;;;;;;;;5076322;28;20037;-83
2021/10/08 11:21:02;;;;;;;11.73;4.68;;;;;;;;;;5077536;28;20059;-83
2021/10/08 11:23:33;;;;;;;9.57;4.10;;;;;;;;;;5081105;28;20044;-85
2021/10/08 11:26:01;;;;;;;12.50;3.77;;;;;;;;;;5081723;28;20318;-85
2021/10/08 11:28:32;;;;;;;8.73;3.38;;;;;;;;;;5081311;28;20044;-85
2021/10/08 11:30:58;;;;;;;6.93;3.40;;;;;;;;;;5080252;28;20032;-84
2021/10/08 11:33:36;;;;;;;12.23;4.28;;;;;;;;;;5080257;28;20016;-86
2021/10/08 11:36:23;;;;;;;10.32;4.20;;;;;;;;;;5081241;28;20054;-86
2021/10/08 11:38:53;;;;;;;13.40;4.55;;;;;;;;;;5114182;28;20028;-85
2021/10/08 11:41:21;;;;;;;12.52;4.18;;;;;;;;;;5080016;28;20048;-85
2021/10/08 11:43:50;;;;;;;14.68;3.80;;;;;;;;;;5081514;28;20046;-85
2021/10/08 11:46:26;;;;;;;9.25;3.85;;;;;;;;;;5080846;28;20120;-86
2021/10/08 11:48:58;;;;;;;19.45;5.13;;;;;;;;;;5080072;28;20074;-85
2021/10/08 11:51:24;;;;;;;14.32;5.07;;;;;;;;;;5080941;28;20024;-85
2021/10/08 11:53:57;;;;;;;22.63;10.18;;;;;;;;;;5080829;28;20039;-85
2021/10/08 11:56:28;;;;;;;31.25;8.38;;;;;;;;;;5079778;28;20492;-85
2021/10/08 11:59:16;;;;;;;37.55;13.50;;;;;;;;;;5079670;28;20449;-85
2021/10/08 12:01:43;;;;;;;21.90;10.77;;;;;;;;;;5080820;28;20099;-85
2021/10/08 12:04:18;;;;;;;15.45;6.25;;;;;;;;;;5079639;28;20111;-86
2021/10/08 12:06:45;;;;;;;11.00;6.63;;;;;;;;;;5080922;28;20422;-85
2021/10/08 12:09:18;;;;;;;12.25;6.80;;;;;;;;;;5079395;28;20021;-85
2021/10/08 12:11:44;;;;;;;15.90;7.13;;;;;;;;;;5080760;28;20028;-86
2021/10/08 12:14:10;;;;;;;14.55;7.20;;;;;;;;;;5080407;28;20017;-85
2021/10/08 12:16:37;;;;;;;14.73;6.43;;;;;;;;;;5080126;28;20052;-86
2021/10/08 12:19:04;;;;;;;16.30;7.53;;;;;;;;;;5080798;28;20235;-85
2021/10/08 12:21:37;;;;;;;19.88;9.45;;;;;;;;;;5079433;28;20024;-85
2021/10/08 12:24:09;;;;;;;20.42;8.70;;;;;;;;;;5080706;28;20296;-85
2021/10/08 12:26:38;;;;;;;20.15;8.98;;;;;;;;;;5080197;28;20021;-85
2021/10/08 12:29:09;;;;;;;19.10;8.57;;;;;;;;;;5079043;28;20032;-86
2021/10/08 12:31:48;;;;;;;20.42;10.27;;;;;;;;;;5079143;28;20024;-85
2021/10/08 12:34:14;;;;;;;15.52;7.90;;;;;;;;;;5079686;28;20036;-86
2021/10/08 12:36:40;;;;;;;20.48;8.13;;;;;;;;;;5080427;28;20037;-85
2021/10/08 12:39:08;;;;;;;25.73;14.38;;;;;;;;;;5080319;28;20086;-85
2021/10/08 12:41:43;;;;;;;14.85;8.02;;;;;;;;;;5080086;28;20032;-85
2021/10/08 12:44:16;;;;;;;13.70;8.38;;;;;;;;;;5078585;28;20037;-85
2021/10/08 12:46:43;;;;;;;10.13;5.47;;;;;;;;;;5078772;28;20418;-85
2021/10/08 12:49:10;;;;;;;12.02;6.13;;;;;;;;;;5080137;28;20020;-86
2021/10/08 12:51:46;;;;;;;14.32;6.95;;;;;;;;;;5078854;28;20425;-85
2021/10/08 12:54:18;;;;;;;12.15;7.30;;;;;;;;;;5079825;28;20024;-85
2021/10/08 12:59:48;;;;;;;16.67;6.28;;;;;;;;;;5079764;28;19942;-85
2021/10/08 13:02:14;;;;;;;15.88;5.60;;;;;;;;;;5079838;28;20028;-85
2021/10/08 13:04:41;;;;;;;13.35;5.40;;;;;;;;;;5078568;28;20090;-85
2021/10/08 13:07:17;;;;;;;19.20;6.82;;;;;;;;;;5079429;28;20033;-85
2021/10/08 13:10:02;;;;;;;12.55;7.07;;;;;;;;;;5079778;28;20020;-85
2021/10/08 13:12:41;;;;;;;22.00;10.20;;;;;;;;;;5079146;28;20020;-85
2021/10/08 13:15:12;;;;;;;20.65;10.52;;;;;;;;;;5078063;28;20088;-85
2021/10/08 13:17:38;;;;;;;13.80;7.45;;;;;;;;;;5078283;28;20426;-85
2021/10/08 13:20:04;;;;;;;12.40;6.18;;;;;;;;;;5079208;28;20029;-85
2021/10/08 13:22:32;;;;;;;16.02;7.20;;;;;;;;;;5078078;28;20103;-84
2021/10/08 13:24:58;;;;;;;14.75;6.38;;;;;;;;;;5079259;28;20079;-85
2021/10/08 13:27:25;;;;;;;16.70;7.30;;;;;;;;;;5079016;28;20111;-85
2021/10/08 13:29:51;;;;;;;18.48;6.78;;;;;;;;;;5078935;28;20016;-85
2021/10/08 13:32:17;;;;;;;131.18;13.80;;;;;;;;;;5078911;28;20403;-85
2021/10/08 13:34:45;;;;;;;15.98;7.47;;;;;;;;;;5078027;28;20406;-85
2021/10/08 13:37:12;;;;;;;13.80;6.93;;;;;;;;;;5079213;28;20035;-85
2021/10/08 13:39:41;;;;;;;19.30;8.93;;;;;;;;;;5079167;28;20035;-85
2021/10/08 13:45:11;;;;;;;15.68;6.10;;;;;;;;;;5077997;28;20512;-85
2021/10/08 13:47:37;;;;;;;27.50;7.90;;;;;;;;;;5078841;28;20035;-84
2021/10/08 13:50:04;;;;;;;25.70;6.63;;;;;;;;;;5078615;28;20028;-85
2021/10/08 13:52:30;;;;;;;18.77;6.88;;;;;;;;;;5077693;28;20028;-85
2021/10/08 13:54:56;;;;;;;25.52;7.40;;;;;;;;;;5077537;28;20333;-85
2021/10/08 13:57:22;;;;;;;21.20;7.47;;;;;;;;;;5077515;28;20034;-85
2021/10/08 13:59:49;;;;;;;13.45;6.70;;;;;;;;;;5078697;28;20033;-85
2021/10/08 14:02:21;;;;;;;18.65;6.53;;;;;;;;;;5077252;28;20070;-85
2021/10/08 14:10:20;;;;;;;17.45;7.80;;;;;;;;;;5078688;28;20322;-86
2021/10/08 14:12:47;;;;;;;17.70;8.43;;;;;;;;;;5078082;28;20528;-85
2021/10/08 14:15:13;;;;;;;16.92;8.20;;;;;;;;;;5076938;28;20049;-85
2021/10/08 14:17:39;;;;;;;23.75;11.38;;;;;;;;;;5078130;28;20028;-86
2021/10/08 14:20:06;;;;;;;17.60;6.55;;;;;;;;;;5078038;28;20020;-85
2021/10/08 14:22:32;;;;;;;20.90;8.20;;;;;;;;;;5078447;28;20020;-85
2021/10/08 14:25:00;;;;;;;19.23;6.95;;;;;;;;;;5076712;28;20035;-85
2021/10/08 14:27:26;;;;;;;15.25;6.82;;;;;;;;;;5076852;28;20039;-85
2021/10/08 14:29:52;;;;;;;18.15;8.40;;;;;;;;;;5076917;28;20021;-85
2021/10/08 14:32:18;;;;;;;17.60;9.52;;;;;;;;;;5077898;28;20429;-86
2021/10/08 14:34:44;;;;;;;17.02;7.20;;;;;;;;;;5076829;28;20040;-85
2021/10/08 14:37:10;;;;;;;13.65;6.97;;;;;;;;;;5077789;28;20024;-85
2021/10/08 14:39:36;;;;;;;20.77;5.60;;;;;;;;;;5076779;28;20135;-85
2021/10/08 14:42:02;;;;;;;14.00;5.72;;;;;;;;;;5077780;28;20036;-85
2021/10/08 14:44:28;;;;;;;23.75;6.43;;;;;;;;;;5076593;28;20428;-84
2021/10/08 14:46:54;;;;;;;14.45;6.50;;;;;;;;;;5076601;28;20029;-84
2021/10/08 14:49:21;;;;;;;15.98;6.47;;;;;;;;;;5083335;28;20016;-84
2021/10/08 14:51:47;;;;;;;11.98;6.60;;;;;;;;;;5097748;28;20062;-84
2021/10/08 14:59:44;;;;;;;18.25;8.18;;;;;;;;;;5056008;28;20063;-84
2021/10/08 15:02:10;;;;;;;16.67;8.93;;;;;;;;;;5038685;28;20148;-85
2021/10/08 15:04:39;;;;;;;21.15;9.48;;;;;;;;;;5055592;28;20056;-91
2021/10/08 15:07:05;;;;;;;17.20;8.90;;;;;;;;;;5042515;28;20039;-87
2021/10/08 15:09:34;;;;;;;22.98;8.63;;;;;;;;;;5019886;28;20030;-84
2021/10/08 15:12:01;;;;;;;33.38;8.50;;;;;;;;;;5015535;28;20026;-84